sensor_id;sensor_type;location;lat;lon;timestamp;pressure;altitude;pressure_sealevel;temperature;humidity
85623;BME280;76049;43.076;25.632;2024-03-29T00:01:10;99092.45;;;11.56;60.89
85623;BME280;76049;43.076;25.632;2024-03-29T00:19:02;99106.02;;;11.22;61.57
85623;BME280;76049;43.076;25.632;2024-03-29T00:24:10;99107.21;;;11.11;61.73
85623;BME280;76049;43.076;25.632;2024-03-29T00:29:18;99110.05;;;11.08;61.99
85623;BME280;76049;43.076;25.632;2024-03-29T00:34:26;99113.69;;;11.16;61.91
85623;BME280;76049;43.076;25.632;2024-03-29T00:39:33;99121.73;;;11.18;61.78
85623;BME280;76049;43.076;25.632;2024-03-29T00:44:41;99120.36;;;11.14;61.72
85623;BME280;76049;43.076;25.632;2024-03-29T00:49:49;99110.33;;;10.99;61.75
85623;BME280;76049;43.076;25.632;2024-03-29T00:54:56;99115.49;;;10.80;61.95
85623;BME280;76049;43.076;25.632;2024-03-29T01:00:05;99123.33;;;10.60;62.44
85623;BME280;76049;43.076;25.632;2024-03-29T01:05:13;99127.50;;;10.50;62.82
85623;BME280;76049;43.076;25.632;2024-03-29T01:10:20;99119.79;;;10.52;62.92
85623;BME280;76049;43.076;25.632;2024-03-29T01:15:28;99123.73;;;10.57;62.80
85623;BME280;76049;43.076;25.632;2024-03-29T01:20:35;99124.95;;;10.61;62.71
85623;BME280;76049;43.076;25.632;2024-03-29T01:25:42;99129.02;;;10.51;62.98
85623;BME280;76049;43.076;25.632;2024-03-29T01:35:48;99136.27;;;10.40;63.33
85623;BME280;76049;43.076;25.632;2024-03-29T01:40:55;99141.38;;;10.40;63.30
85623;BME280;76049;43.076;25.632;2024-03-29T01:46:03;99154.20;;;10.38;63.39
85623;BME280;76049;43.076;25.632;2024-03-29T01:56:11;99175.37;;;10.37;63.29
85623;BME280;76049;43.076;25.632;2024-03-29T02:01:20;99176.34;;;10.41;63.03
85623;BME280;76049;43.076;25.632;2024-03-29T02:11:27;99194.88;;;10.25;62.94
85623;BME280;76049;43.076;25.632;2024-03-29T02:21:39;99204.44;;;10.06;63.68
85623;BME280;76049;43.076;25.632;2024-03-29T02:26:47;99211.09;;;9.99;64.09
85623;BME280;76049;43.076;25.632;2024-03-29T02:31:54;99219.75;;;9.96;64.14
85623;BME280;76049;43.076;25.632;2024-03-29T02:42:01;99255.94;;;9.99;64.09
85623;BME280;76049;43.076;25.632;2024-03-29T02:47:08;99257.41;;;10.06;64.18
85623;BME280;76049;43.076;25.632;2024-03-29T02:52:14;99265.08;;;10.11;63.96
85623;BME280;76049;43.076;25.632;2024-03-29T02:57:24;99272.47;;;10.13;63.70
85623;BME280;76049;43.076;25.632;2024-03-29T03:02:31;99277.52;;;10.13;63.57
85623;BME280;76049;43.076;25.632;2024-03-29T03:12:38;99284.11;;;10.19;63.18
85623;BME280;76049;43.076;25.632;2024-03-29T03:17:44;99295.16;;;10.11;63.18
85623;BME280;76049;43.076;25.632;2024-03-29T03:22:53;99302.97;;;9.98;63.38
85623;BME280;76049;43.076;25.632;2024-03-29T03:33:01;99313.77;;;9.77;63.72
85623;BME280;76049;43.076;25.632;2024-03-29T03:43:09;99323.73;;;9.52;64.36
85623;BME280;76049;43.076;25.632;2024-03-29T03:53:15;99338.25;;;9.50;64.83
85623;BME280;76049;43.076;25.632;2024-03-29T04:03:22;99355.83;;;9.63;64.61
85623;BME280;76049;43.076;25.632;2024-03-29T04:13:29;99376.90;;;9.57;64.41
85623;BME280;76049;43.076;25.632;2024-03-29T04:23:36;99395.55;;;9.48;64.66
85623;BME280;76049;43.076;25.632;2024-03-29T04:33:43;99415.11;;;9.78;64.22
85623;BME280;76049;43.076;25.632;2024-03-29T04:43:51;99425.75;;;9.72;64.03
85623;BME280;76049;43.076;25.632;2024-03-29T04:48:58;99434.27;;;9.78;64.12
85623;BME280;76049;43.076;25.632;2024-03-29T04:54:06;99444.96;;;9.93;63.74
85623;BME280;76049;43.076;25.632;2024-03-29T05:04:20;99458.08;;;10.24;63.18
85623;BME280;76049;43.076;25.632;2024-03-29T05:14:30;99473.92;;;10.52;62.84
85623;BME280;76049;43.076;25.632;2024-03-29T05:24:38;99482.08;;;11.42;61.34
85623;BME280;76049;43.076;25.632;2024-03-29T05:34:45;99487.83;;;12.60;59.17
85623;BME280;76049;43.076;25.632;2024-03-29T05:44:52;99499.44;;;14.25;55.90
85623;BME280;76049;43.076;25.632;2024-03-29T05:49:59;99505.73;;;14.95;54.70
85623;BME280;76049;43.076;25.632;2024-03-29T05:55:07;99511.79;;;15.81;52.92
85623;BME280;76049;43.076;25.632;2024-03-29T06:05:15;99521.63;;;16.91;49.14
85623;BME280;76049;43.076;25.632;2024-03-29T06:15:22;99525.67;;;17.69;47.05
85623;BME280;76049;43.076;25.632;2024-03-29T06:25:47;99538.98;;;18.42;45.46
85623;BME280;76049;43.076;25.632;2024-03-29T06:30:53;99540.88;;;18.95;44.53
85623;BME280;76049;43.076;25.632;2024-03-29T06:36:01;99543.80;;;19.32;43.32
85623;BME280;76049;43.076;25.632;2024-03-29T06:41:08;99547.48;;;19.71;42.51
85623;BME280;76049;43.076;25.632;2024-03-29T06:46:15;99557.84;;;20.16;41.60
85623;BME280;76049;43.076;25.632;2024-03-29T06:56:22;99560.63;;;21.68;39.12
85623;BME280;76049;43.076;25.632;2024-03-29T07:06:35;99560.73;;;22.59;36.22
85623;BME280;76049;43.076;25.632;2024-03-29T07:16:44;99581.71;;;23.14;34.05
85623;BME280;76049;43.076;25.632;2024-03-29T07:26:53;99581.35;;;23.26;32.34
85623;BME280;76049;43.076;25.632;2024-03-29T07:37:00;99578.83;;;23.74;31.74
85623;BME280;76049;43.076;25.632;2024-03-29T07:47:07;99576.35;;;24.30;30.08
85623;BME280;76049;43.076;25.632;2024-03-29T07:57:14;99572.75;;;24.22;30.05
85623;BME280;76049;43.076;25.632;2024-03-29T08:07:23;99577.58;;;24.91;30.37
85623;BME280;76049;43.076;25.632;2024-03-29T08:17:30;99571.68;;;25.47;28.68
85623;BME280;76049;43.076;25.632;2024-03-29T08:27:37;99573.48;;;25.77;27.09
85623;BME280;76049;43.076;25.632;2024-03-29T08:37:44;99569.08;;;25.90;26.11
85623;BME280;76049;43.076;25.632;2024-03-29T08:42:51;99567.16;;;25.85;26.13
85623;BME280;76049;43.076;25.632;2024-03-29T08:48:01;99564.52;;;25.81;26.30
85623;BME280;76049;43.076;25.632;2024-03-29T08:58:08;99564.14;;;25.87;25.98
85623;BME280;76049;43.076;25.632;2024-03-29T09:08:15;99553.65;;;25.88;24.89
85623;BME280;76049;43.076;25.632;2024-03-29T09:13:21;99542.84;;;25.87;24.90
85623;BME280;76049;43.076;25.632;2024-03-29T09:18:28;99545.22;;;25.91;24.42
85623;BME280;76049;43.076;25.632;2024-03-29T09:28:35;99560.85;;;25.84;24.08
85623;BME280;76049;43.076;25.632;2024-03-29T09:33:42;99562.53;;;25.82;24.15
85623;BME280;76049;43.076;25.632;2024-03-29T09:38:49;99554.30;;;25.83;23.40
85623;BME280;76049;43.076;25.632;2024-03-29T09:48:56;99539.81;;;25.67;23.83
85623;BME280;76049;43.076;25.632;2024-03-29T09:59:03;99526.13;;;25.54;23.72
85623;BME280;76049;43.076;25.632;2024-03-29T10:09:10;99526.73;;;25.35;23.89
85623;BME280;76049;43.076;25.632;2024-03-29T10:14:21;99520.41;;;25.29;24.31
85623;BME280;76049;43.076;25.632;2024-03-29T10:19:31;99517.30;;;25.25;24.40
85623;BME280;76049;43.076;25.632;2024-03-29T10:29:44;99522.88;;;25.15;24.42
85623;BME280;76049;43.076;25.632;2024-03-29T10:39:51;99525.84;;;25.06;24.05
85623;BME280;76049;43.076;25.632;2024-03-29T10:49:59;99506.44;;;24.90;23.96
85623;BME280;76049;43.076;25.632;2024-03-29T11:00:11;99497.68;;;24.86;24.22
85623;BME280;76049;43.076;25.632;2024-03-29T11:10:25;99496.28;;;24.82;23.90
85623;BME280;76049;43.076;25.632;2024-03-29T11:20:34;99491.20;;;24.75;24.09
85623;BME280;76049;43.076;25.632;2024-03-29T11:25:43;99489.69;;;24.77;24.50
85623;BME280;76049;43.076;25.632;2024-03-29T11:30:51;99492.46;;;24.78;24.46
85623;BME280;76049;43.076;25.632;2024-03-29T11:41:06;99475.52;;;24.74;24.34
85623;BME280;76049;43.076;25.632;2024-03-29T11:51:22;99476.95;;;24.72;24.60
85623;BME280;76049;43.076;25.632;2024-03-29T12:01:29;99475.45;;;24.70;24.65
85623;BME280;76049;43.076;25.632;2024-03-29T12:11:37;99480.77;;;24.69;24.79
85623;BME280;76049;43.076;25.632;2024-03-29T12:21:44;99487.23;;;24.72;24.85
85623;BME280;76049;43.076;25.632;2024-03-29T12:31:59;99478.86;;;24.78;25.22
85623;BME280;76049;43.076;25.632;2024-03-29T12:42:12;99460.39;;;24.88;25.21
85623;BME280;76049;43.076;25.632;2024-03-29T12:52:19;99453.77;;;24.92;25.55
85623;BME280;76049;43.076;25.632;2024-03-29T13:02:32;99433.95;;;24.94;25.26
85623;BME280;76049;43.076;25.632;2024-03-29T13:12:39;99442.75;;;24.88;25.51
85623;BME280;76049;43.076;25.632;2024-03-29T13:22:49;99443.29;;;24.85;25.72
85623;BME280;76049;43.076;25.632;2024-03-29T13:32:57;99452.65;;;24.84;25.53
85623;BME280;76049;43.076;25.632;2024-03-29T13:38:04;99449.67;;;24.86;25.57
85623;BME280;76049;43.076;25.632;2024-03-29T13:43:10;99450.36;;;24.86;25.42
85623;BME280;76049;43.076;25.632;2024-03-29T13:53:24;99453.48;;;24.85;26.02
85623;BME280;76049;43.076;25.632;2024-03-29T14:03:37;99451.16;;;24.86;25.46
85623;BME280;76049;43.076;25.632;2024-03-29T14:13:44;99441.23;;;24.78;25.95
85623;BME280;76049;43.076;25.632;2024-03-29T14:23:55;99437.13;;;24.72;26.19
85623;BME280;76049;43.076;25.632;2024-03-29T14:34:02;99432.21;;;24.68;26.37
85623;BME280;76049;43.076;25.632;2024-03-29T14:44:10;99433.91;;;24.73;26.35
85623;BME280;76049;43.076;25.632;2024-03-29T14:49:17;99435.13;;;24.73;26.72
85623;BME280;76049;43.076;25.632;2024-03-29T14:54:25;99433.25;;;24.74;26.22
85623;BME280;76049;43.076;25.632;2024-03-29T14:59:33;99436.11;;;24.70;26.58
85623;BME280;76049;43.076;25.632;2024-03-29T15:04:42;99438.08;;;24.62;26.22
85623;BME280;76049;43.076;25.632;2024-03-29T15:09:52;99428.96;;;24.52;26.21
85623;BME280;76049;43.076;25.632;2024-03-29T15:14:59;99432.48;;;24.48;26.61
85623;BME280;76049;43.076;25.632;2024-03-29T15:20:07;99438.88;;;24.43;26.96
85623;BME280;76049;43.076;25.632;2024-03-29T15:25:15;99444.98;;;24.38;26.93
85623;BME280;76049;43.076;25.632;2024-03-29T15:30:22;99453.45;;;24.33;27.62
85623;BME280;76049;43.076;25.632;2024-03-29T15:35:29;99455.11;;;24.22;27.20
85623;BME280;76049;43.076;25.632;2024-03-29T15:40:36;99453.50;;;24.12;27.95
85623;BME280;76049;43.076;25.632;2024-03-29T15:45:42;99453.98;;;24.01;27.71
85623;BME280;76049;43.076;25.632;2024-03-29T15:55:56;99454.05;;;23.83;27.89
85623;BME280;76049;43.076;25.632;2024-03-29T16:01:04;99455.41;;;23.72;27.94
85623;BME280;76049;43.076;25.632;2024-03-29T16:06:12;99454.08;;;23.59;28.24
85623;BME280;76049;43.076;25.632;2024-03-29T16:16:19;99465.67;;;23.32;28.73
85623;BME280;76049;43.076;25.632;2024-03-29T16:21:25;99472.11;;;23.21;28.65
85623;BME280;76049;43.076;25.632;2024-03-29T16:26:32;99470.98;;;23.09;29.20
85623;BME280;76049;43.076;25.632;2024-03-29T16:36:43;99465.54;;;22.79;29.62
85623;BME280;76049;43.076;25.632;2024-03-29T16:41:55;99462.52;;;22.62;30.00
85623;BME280;76049;43.076;25.632;2024-03-29T16:47:04;99466.94;;;22.46;30.45
85623;BME280;76049;43.076;25.632;2024-03-29T16:52:14;99468.71;;;22.30;30.44
85623;BME280;76049;43.076;25.632;2024-03-29T16:57:21;99474.45;;;22.07;31.96
85623;BME280;76049;43.076;25.632;2024-03-29T17:07:37;99479.06;;;21.69;32.52
85623;BME280;76049;43.076;25.632;2024-03-29T17:17:44;99485.16;;;21.21;33.39
85623;BME280;76049;43.076;25.632;2024-03-29T17:27:51;99491.46;;;20.85;35.02
85623;BME280;76049;43.076;25.632;2024-03-29T17:37:58;99504.57;;;20.22;36.36
85623;BME280;76049;43.076;25.632;2024-03-29T17:48:06;99510.95;;;19.90;37.21
85623;BME280;76049;43.076;25.632;2024-03-29T17:58:13;99518.35;;;19.44;37.88
85623;BME280;76049;43.076;25.632;2024-03-29T18:08:21;99525.14;;;19.05;39.53
85623;BME280;76049;43.076;25.632;2024-03-29T18:18:28;99524.79;;;18.83;40.90
85623;BME280;76049;43.076;25.632;2024-03-29T18:23:34;99527.44;;;18.69;41.14
85623;BME280;76049;43.076;25.632;2024-03-29T18:28:42;99524.86;;;18.44;41.10
85623;BME280;76049;43.076;25.632;2024-03-29T18:33:48;99522.64;;;18.31;41.14
85623;BME280;76049;43.076;25.632;2024-03-29T18:38:55;99529.13;;;18.24;41.87
85623;BME280;76049;43.076;25.632;2024-03-29T18:49:02;99528.79;;;18.02;43.15
85623;BME280;76049;43.076;25.632;2024-03-29T18:59:09;99529.08;;;17.66;43.53
85623;BME280;76049;43.076;25.632;2024-03-29T19:09:22;99529.98;;;17.45;44.38
85623;BME280;76049;43.076;25.632;2024-03-29T19:14:28;99529.14;;;17.39;44.66
85623;BME280;76049;43.076;25.632;2024-03-29T19:19:35;99526.84;;;17.33;44.77
85623;BME280;76049;43.076;25.632;2024-03-29T19:29:42;99527.63;;;16.97;45.37
85623;BME280;76049;43.076;25.632;2024-03-29T19:34:54;99519.14;;;16.86;45.72
85623;BME280;76049;43.076;25.632;2024-03-29T19:40:01;99525.08;;;16.80;45.44
85623;BME280;76049;43.076;25.632;2024-03-29T19:45:10;99524.47;;;16.71;45.72
85623;BME280;76049;43.076;25.632;2024-03-29T19:50:20;99524.77;;;16.62;46.17
85623;BME280;76049;43.076;25.632;2024-03-29T20:00:30;99522.54;;;16.51;46.50
85623;BME280;76049;43.076;25.632;2024-03-29T20:05:37;99520.98;;;16.49;46.91
85623;BME280;76049;43.076;25.632;2024-03-29T20:10:45;99528.50;;;16.36;47.36
85623;BME280;76049;43.076;25.632;2024-03-29T20:20:52;99532.89;;;16.21;48.48
85623;BME280;76049;43.076;25.632;2024-03-29T20:31:03;99539.38;;;16.16;47.92
85623;BME280;76049;43.076;25.632;2024-03-29T20:36:13;99530.52;;;16.18;47.97
85623;BME280;76049;43.076;25.632;2024-03-29T20:41:22;99528.55;;;16.15;48.16
85623;BME280;76049;43.076;25.632;2024-03-29T20:46:29;99527.90;;;16.02;48.17
85623;BME280;76049;43.076;25.632;2024-03-29T20:51:37;99521.76;;;15.97;47.93
85623;BME280;76049;43.076;25.632;2024-03-29T21:01:44;99519.84;;;15.87;48.61
85623;BME280;76049;43.076;25.632;2024-03-29T21:12:15;99508.20;;;15.61;48.78
85623;BME280;76049;43.076;25.632;2024-03-29T21:22:24;99504.34;;;15.40;49.03
85623;BME280;76049;43.076;25.632;2024-03-29T21:32:31;99504.42;;;15.27;49.58
85623;BME280;76049;43.076;25.632;2024-03-29T21:42:38;99499.79;;;15.14;50.54
85623;BME280;76049;43.076;25.632;2024-03-29T21:52:45;99495.25;;;14.91;51.82
85623;BME280;76049;43.076;25.632;2024-03-29T22:02:52;99495.09;;;14.77;52.03
85623;BME280;76049;43.076;25.632;2024-03-29T22:13:23;99492.35;;;14.70;51.69
85623;BME280;76049;43.076;25.632;2024-03-29T22:23:30;99495.73;;;14.64;52.30
85623;BME280;76049;43.076;25.632;2024-03-29T22:28:37;99503.70;;;14.61;52.35
85623;BME280;76049;43.076;25.632;2024-03-29T22:33:43;99506.02;;;14.65;52.21
85623;BME280;76049;43.076;25.632;2024-03-29T22:43:50;99499.85;;;14.79;52.43
85623;BME280;76049;43.076;25.632;2024-03-29T22:53:57;99503.07;;;14.86;52.39
85623;BME280;76049;43.076;25.632;2024-03-29T23:04:04;99501.23;;;14.85;52.44
85623;BME280;76049;43.076;25.632;2024-03-29T23:14:11;99504.73;;;14.86;52.36
85623;BME280;76049;43.076;25.632;2024-03-29T23:24:17;99502.88;;;14.92;52.37
85623;BME280;76049;43.076;25.632;2024-03-29T23:34:48;99492.64;;;14.93;52.51
85623;BME280;76049;43.076;25.632;2024-03-29T23:39:54;99487.77;;;14.91;52.88
85623;BME280;76049;43.076;25.632;2024-03-29T23:45:01;99483.39;;;14.91;53.05
85623;BME280;76049;43.076;25.632;2024-03-29T23:55:10;99474.88;;;14.84;53.46
